sensor_id;sensor_type;location;lat;lon;timestamp;temperature;humidity
48162;DHT22;33950;48.154;16.316;2022-08-19T00:01:24;26.30;74.30
48162;DHT22;33950;48.154;16.316;2022-08-19T00:03:50;26.30;74.10
48162;DHT22;33950;48.154;16.316;2022-08-19T00:06:16;26.20;74.40
48162;DHT22;33950;48.154;16.316;2022-08-19T00:08:43;26.20;74.70
48162;DHT22;33950;48.154;16.316;2022-08-19T00:11:10;26.20;74.70
48162;DHT22;33950;48.154;16.316;2022-08-19T00:13:36;26.30;74.90
48162;DHT22;33950;48.154;16.316;2022-08-19T00:16:04;26.30;74.70
48162;DHT22;33950;48.154;16.316;2022-08-19T00:18:31;26.30;74.60
48162;DHT22;33950;48.154;16.316;2022-08-19T00:20:57;26.30;74.80
48162;DHT22;33950;48.154;16.316;2022-08-19T00:23:23;26.30;74.40
48162;DHT22;33950;48.154;16.316;2022-08-19T00:25:49;26.10;74.80
48162;DHT22;33950;48.154;16.316;2022-08-19T00:28:16;26.20;75.10
48162;DHT22;33950;48.154;16.316;2022-08-19T00:30:42;26.10;75.00
48162;DHT22;33950;48.154;16.316;2022-08-19T00:33:08;26.00;75.20
48162;DHT22;33950;48.154;16.316;2022-08-19T00:35:33;25.80;75.40
48162;DHT22;33950;48.154;16.316;2022-08-19T00:37:59;25.70;75.60
48162;DHT22;33950;48.154;16.316;2022-08-19T00:40:26;25.60;75.70
48162;DHT22;33950;48.154;16.316;2022-08-19T00:42:52;25.60;76.10
48162;DHT22;33950;48.154;16.316;2022-08-19T00:45:23;25.80;76.10
48162;DHT22;33950;48.154;16.316;2022-08-19T00:47:50;25.80;75.80
48162;DHT22;33950;48.154;16.316;2022-08-19T00:50:18;25.80;75.80
48162;DHT22;33950;48.154;16.316;2022-08-19T00:52:48;25.90;75.70
48162;DHT22;33950;48.154;16.316;2022-08-19T00:55:19;25.80;75.70
48162;DHT22;33950;48.154;16.316;2022-08-19T00:57:49;25.70;76.30
48162;DHT22;33950;48.154;16.316;2022-08-19T01:00:18;25.60;76.10
48162;DHT22;33950;48.154;16.316;2022-08-19T01:02:46;25.60;76.00
48162;DHT22;33950;48.154;16.316;2022-08-19T01:05:14;25.70;76.60
48162;DHT22;33950;48.154;16.316;2022-08-19T01:07:41;25.60;75.90
48162;DHT22;33950;48.154;16.316;2022-08-19T01:10:13;25.50;76.20
48162;DHT22;33950;48.154;16.316;2022-08-19T01:12:40;25.40;76.30
48162;DHT22;33950;48.154;16.316;2022-08-19T01:15:08;25.30;76.60
48162;DHT22;33950;48.154;16.316;2022-08-19T01:17:34;25.20;76.30
48162;DHT22;33950;48.154;16.316;2022-08-19T01:20:04;25.10;76.30
48162;DHT22;33950;48.154;16.316;2022-08-19T01:22:34;25.30;76.40
48162;DHT22;33950;48.154;16.316;2022-08-19T01:25:05;25.30;76.20
48162;DHT22;33950;48.154;16.316;2022-08-19T01:27:37;25.30;76.10
48162;DHT22;33950;48.154;16.316;2022-08-19T01:30:05;25.20;76.10
48162;DHT22;33950;48.154;16.316;2022-08-19T01:32:32;25.10;76.30
48162;DHT22;33950;48.154;16.316;2022-08-19T01:34:57;25.20;76.40
48162;DHT22;33950;48.154;16.316;2022-08-19T01:37:23;25.20;76.30
48162;DHT22;33950;48.154;16.316;2022-08-19T01:39:51;25.30;76.20
48162;DHT22;33950;48.154;16.316;2022-08-19T01:42:17;25.30;76.20
48162;DHT22;33950;48.154;16.316;2022-08-19T01:44:43;25.30;76.30
48162;DHT22;33950;48.154;16.316;2022-08-19T01:47:09;25.30;76.10
48162;DHT22;33950;48.154;16.316;2022-08-19T01:49:35;25.30;76.80
48162;DHT22;33950;48.154;16.316;2022-08-19T01:52:02;25.30;76.20
48162;DHT22;33950;48.154;16.316;2022-08-19T01:54:28;25.20;76.30
48162;DHT22;33950;48.154;16.316;2022-08-19T01:57:01;24.90;76.50
48162;DHT22;33950;48.154;16.316;2022-08-19T01:59:29;24.70;76.50
48162;DHT22;33950;48.154;16.316;2022-08-19T02:01:55;24.90;76.20
48162;DHT22;33950;48.154;16.316;2022-08-19T02:04:21;25.00;76.10
48162;DHT22;33950;48.154;16.316;2022-08-19T02:06:47;24.90;76.20
48162;DHT22;33950;48.154;16.316;2022-08-19T02:09:13;24.70;76.00
48162;DHT22;33950;48.154;16.316;2022-08-19T02:11:41;24.40;76.40
48162;DHT22;33950;48.154;16.316;2022-08-19T02:14:08;24.30;77.20
48162;DHT22;33950;48.154;16.316;2022-08-19T02:16:35;24.20;76.50
48162;DHT22;33950;48.154;16.316;2022-08-19T02:19:02;24.20;76.70
48162;DHT22;33950;48.154;16.316;2022-08-19T02:21:29;24.10;76.20
48162;DHT22;33950;48.154;16.316;2022-08-19T02:23:55;24.10;76.10
48162;DHT22;33950;48.154;16.316;2022-08-19T02:26:21;24.30;76.10
48162;DHT22;33950;48.154;16.316;2022-08-19T02:28:47;24.40;75.30
48162;DHT22;33950;48.154;16.316;2022-08-19T02:31:17;24.50;75.10
48162;DHT22;33950;48.154;16.316;2022-08-19T02:33:43;24.40;75.40
48162;DHT22;33950;48.154;16.316;2022-08-19T02:36:10;24.40;75.90
48162;DHT22;33950;48.154;16.316;2022-08-19T02:38:37;24.50;76.00
48162;DHT22;33950;48.154;16.316;2022-08-19T02:41:05;24.50;75.80
48162;DHT22;33950;48.154;16.316;2022-08-19T02:43:33;24.50;76.20
48162;DHT22;33950;48.154;16.316;2022-08-19T02:46:11;24.60;76.30
48162;DHT22;33950;48.154;16.316;2022-08-19T02:48:38;24.50;76.60
48162;DHT22;33950;48.154;16.316;2022-08-19T02:51:04;24.50;76.80
48162;DHT22;33950;48.154;16.316;2022-08-19T02:53:30;24.60;77.00
48162;DHT22;33950;48.154;16.316;2022-08-19T02:55:56;24.70;77.10
48162;DHT22;33950;48.154;16.316;2022-08-19T02:58:23;24.80;76.90
48162;DHT22;33950;48.154;16.316;2022-08-19T03:00:51;24.90;77.60
48162;DHT22;33950;48.154;16.316;2022-08-19T03:03:18;24.90;77.10
48162;DHT22;33950;48.154;16.316;2022-08-19T03:05:46;25.00;77.10
48162;DHT22;33950;48.154;16.316;2022-08-19T03:08:14;25.10;77.30
48162;DHT22;33950;48.154;16.316;2022-08-19T03:10:41;25.20;77.40
48162;DHT22;33950;48.154;16.316;2022-08-19T03:13:09;25.30;77.20
48162;DHT22;33950;48.154;16.316;2022-08-19T03:15:39;25.50;77.20
48162;DHT22;33950;48.154;16.316;2022-08-19T03:18:05;25.60;77.00
48162;DHT22;33950;48.154;16.316;2022-08-19T03:20:31;25.60;76.60
48162;DHT22;33950;48.154;16.316;2022-08-19T03:22:58;25.60;77.10
48162;DHT22;33950;48.154;16.316;2022-08-19T03:25:24;25.60;77.30
48162;DHT22;33950;48.154;16.316;2022-08-19T03:27:49;25.50;77.20
48162;DHT22;33950;48.154;16.316;2022-08-19T03:30:15;25.40;77.40
48162;DHT22;33950;48.154;16.316;2022-08-19T03:32:41;25.40;77.80
48162;DHT22;33950;48.154;16.316;2022-08-19T03:35:07;25.40;78.80
48162;DHT22;33950;48.154;16.316;2022-08-19T03:37:33;25.40;78.10
48162;DHT22;33950;48.154;16.316;2022-08-19T03:40:02;25.50;78.80
48162;DHT22;33950;48.154;16.316;2022-08-19T03:42:29;25.50;78.10
48162;DHT22;33950;48.154;16.316;2022-08-19T03:44:55;25.40;78.70
48162;DHT22;33950;48.154;16.316;2022-08-19T03:47:21;25.30;78.60
48162;DHT22;33950;48.154;16.316;2022-08-19T03:49:46;25.30;78.70
48162;DHT22;33950;48.154;16.316;2022-08-19T03:52:12;25.30;79.30
48162;DHT22;33950;48.154;16.316;2022-08-19T03:54:39;25.20;78.90
48162;DHT22;33950;48.154;16.316;2022-08-19T03:57:07;25.20;79.60
48162;DHT22;33950;48.154;16.316;2022-08-19T03:59:36;25.20;79.20
48162;DHT22;33950;48.154;16.316;2022-08-19T04:02:06;25.20;79.30
48162;DHT22;33950;48.154;16.316;2022-08-19T04:04:34;25.20;79.50
48162;DHT22;33950;48.154;16.316;2022-08-19T04:07:00;25.10;79.60
48162;DHT22;33950;48.154;16.316;2022-08-19T04:09:26;25.10;79.70
48162;DHT22;33950;48.154;16.316;2022-08-19T04:11:53;25.20;79.90
48162;DHT22;33950;48.154;16.316;2022-08-19T04:14:23;25.30;80.00
48162;DHT22;33950;48.154;16.316;2022-08-19T04:16:50;25.30;79.70
48162;DHT22;33950;48.154;16.316;2022-08-19T04:19:17;25.40;79.70
48162;DHT22;33950;48.154;16.316;2022-08-19T04:21:44;25.50;79.80
48162;DHT22;33950;48.154;16.316;2022-08-19T04:24:11;25.50;79.60
48162;DHT22;33950;48.154;16.316;2022-08-19T04:26:37;25.60;79.70
48162;DHT22;33950;48.154;16.316;2022-08-19T04:29:06;25.60;79.50
48162;DHT22;33950;48.154;16.316;2022-08-19T04:31:33;25.50;79.80
48162;DHT22;33950;48.154;16.316;2022-08-19T04:34:05;25.50;79.90
48162;DHT22;33950;48.154;16.316;2022-08-19T04:36:32;25.40;80.00
48162;DHT22;33950;48.154;16.316;2022-08-19T04:39:02;25.50;80.80
48162;DHT22;33950;48.154;16.316;2022-08-19T04:41:28;25.50;80.30
48162;DHT22;33950;48.154;16.316;2022-08-19T04:44:13;25.50;80.30
48162;DHT22;33950;48.154;16.316;2022-08-19T04:46:40;25.50;80.40
48162;DHT22;33950;48.154;16.316;2022-08-19T04:49:07;25.50;80.60
48162;DHT22;33950;48.154;16.316;2022-08-19T04:51:34;25.50;80.60
48162;DHT22;33950;48.154;16.316;2022-08-19T04:54:01;25.50;80.70
48162;DHT22;33950;48.154;16.316;2022-08-19T04:56:27;25.40;80.80
48162;DHT22;33950;48.154;16.316;2022-08-19T04:58:55;25.40;80.90
48162;DHT22;33950;48.154;16.316;2022-08-19T05:01:23;25.40;81.10
48162;DHT22;33950;48.154;16.316;2022-08-19T05:03:50;25.40;81.30
48162;DHT22;33950;48.154;16.316;2022-08-19T05:06:19;25.40;81.30
48162;DHT22;33950;48.154;16.316;2022-08-19T05:08:46;25.20;81.60
48162;DHT22;33950;48.154;16.316;2022-08-19T05:11:14;25.10;81.90
48162;DHT22;33950;48.154;16.316;2022-08-19T05:13:41;25.00;82.30
48162;DHT22;33950;48.154;16.316;2022-08-19T05:16:08;25.00;82.50
48162;DHT22;33950;48.154;16.316;2022-08-19T05:18:34;25.00;82.50
48162;DHT22;33950;48.154;16.316;2022-08-19T05:21:21;25.00;82.80
48162;DHT22;33950;48.154;16.316;2022-08-19T05:24:06;25.00;82.80
48162;DHT22;33950;48.154;16.316;2022-08-19T05:26:35;25.00;83.10
48162;DHT22;33950;48.154;16.316;2022-08-19T05:29:01;24.90;83.10
48162;DHT22;33950;48.154;16.316;2022-08-19T05:31:27;24.80;83.30
48162;DHT22;33950;48.154;16.316;2022-08-19T05:33:53;24.70;83.60
48162;DHT22;33950;48.154;16.316;2022-08-19T05:36:20;24.60;84.00
48162;DHT22;33950;48.154;16.316;2022-08-19T05:38:46;24.40;84.30
48162;DHT22;33950;48.154;16.316;2022-08-19T05:41:14;24.30;84.60
48162;DHT22;33950;48.154;16.316;2022-08-19T05:43:40;24.30;84.90
48162;DHT22;33950;48.154;16.316;2022-08-19T05:46:07;24.30;85.60
48162;DHT22;33950;48.154;16.316;2022-08-19T05:48:34;24.30;85.10
48162;DHT22;33950;48.154;16.316;2022-08-19T05:51:04;24.40;85.00
48162;DHT22;33950;48.154;16.316;2022-08-19T05:53:33;24.40;85.10
48162;DHT22;33950;48.154;16.316;2022-08-19T05:56:03;24.30;85.20
48162;DHT22;33950;48.154;16.316;2022-08-19T05:58:29;24.20;85.70
48162;DHT22;33950;48.154;16.316;2022-08-19T06:00:55;24.10;86.40
48162;DHT22;33950;48.154;16.316;2022-08-19T06:03:20;24.00;86.00
48162;DHT22;33950;48.154;16.316;2022-08-19T06:05:46;23.90;86.40
48162;DHT22;33950;48.154;16.316;2022-08-19T06:08:12;23.90;86.70
48162;DHT22;33950;48.154;16.316;2022-08-19T06:10:39;23.90;86.90
48162;DHT22;33950;48.154;16.316;2022-08-19T06:13:08;23.80;86.90
48162;DHT22;33950;48.154;16.316;2022-08-19T06:15:34;23.80;87.40
48162;DHT22;33950;48.154;16.316;2022-08-19T06:17:59;23.80;87.30
48162;DHT22;33950;48.154;16.316;2022-08-19T06:20:26;23.80;87.50
48162;DHT22;33950;48.154;16.316;2022-08-19T06:22:52;23.70;87.80
48162;DHT22;33950;48.154;16.316;2022-08-19T06:25:18;23.60;88.20
48162;DHT22;33950;48.154;16.316;2022-08-19T06:27:45;23.70;88.10
48162;DHT22;33950;48.154;16.316;2022-08-19T06:30:12;23.70;88.20
48162;DHT22;33950;48.154;16.316;2022-08-19T06:32:38;23.70;88.20
48162;DHT22;33950;48.154;16.316;2022-08-19T06:35:04;23.60;88.20
48162;DHT22;33950;48.154;16.316;2022-08-19T06:37:31;23.70;88.10
48162;DHT22;33950;48.154;16.316;2022-08-19T06:39:56;23.70;88.00
48162;DHT22;33950;48.154;16.316;2022-08-19T06:42:22;23.70;88.30
48162;DHT22;33950;48.154;16.316;2022-08-19T06:44:49;23.70;88.20
48162;DHT22;33950;48.154;16.316;2022-08-19T06:47:17;23.90;88.10
48162;DHT22;33950;48.154;16.316;2022-08-19T06:49:43;23.90;88.00
48162;DHT22;33950;48.154;16.316;2022-08-19T06:52:09;24.00;87.80
48162;DHT22;33950;48.154;16.316;2022-08-19T06:54:37;23.90;87.80
48162;DHT22;33950;48.154;16.316;2022-08-19T06:57:03;23.90;88.10
48162;DHT22;33950;48.154;16.316;2022-08-19T06:59:30;23.80;88.10
48162;DHT22;33950;48.154;16.316;2022-08-19T07:02:02;23.90;88.30
48162;DHT22;33950;48.154;16.316;2022-08-19T07:04:31;24.00;87.80
48162;DHT22;33950;48.154;16.316;2022-08-19T07:07:03;24.00;87.50
48162;DHT22;33950;48.154;16.316;2022-08-19T07:09:31;24.00;87.60
48162;DHT22;33950;48.154;16.316;2022-08-19T07:11:57;24.10;87.40
48162;DHT22;33950;48.154;16.316;2022-08-19T07:14:25;24.30;87.20
48162;DHT22;33950;48.154;16.316;2022-08-19T07:16:53;24.50;86.80
48162;DHT22;33950;48.154;16.316;2022-08-19T07:19:23;24.70;86.40
48162;DHT22;33950;48.154;16.316;2022-08-19T07:21:50;24.80;85.90
48162;DHT22;33950;48.154;16.316;2022-08-19T07:24:19;24.90;86.00
48162;DHT22;33950;48.154;16.316;2022-08-19T07:26:45;25.00;85.70
48162;DHT22;33950;48.154;16.316;2022-08-19T07:29:11;25.10;84.40
48162;DHT22;33950;48.154;16.316;2022-08-19T07:31:38;25.20;83.60
48162;DHT22;33950;48.154;16.316;2022-08-19T07:34:05;25.10;83.60
48162;DHT22;33950;48.154;16.316;2022-08-19T07:36:37;25.30;83.80
48162;DHT22;33950;48.154;16.316;2022-08-19T07:39:07;25.30;83.90
48162;DHT22;33950;48.154;16.316;2022-08-19T07:41:35;25.50;83.70
48162;DHT22;33950;48.154;16.316;2022-08-19T07:44:04;25.70;82.90
48162;DHT22;33950;48.154;16.316;2022-08-19T07:46:41;25.80;82.80
48162;DHT22;33950;48.154;16.316;2022-08-19T07:49:07;26.00;82.40
48162;DHT22;33950;48.154;16.316;2022-08-19T07:51:35;26.10;81.80
48162;DHT22;33950;48.154;16.316;2022-08-19T07:54:01;26.10;82.50
48162;DHT22;33950;48.154;16.316;2022-08-19T07:56:27;26.20;82.00
48162;DHT22;33950;48.154;16.316;2022-08-19T07:58:53;26.30;81.90
48162;DHT22;33950;48.154;16.316;2022-08-19T08:01:22;26.40;81.80
48162;DHT22;33950;48.154;16.316;2022-08-19T08:03:49;26.50;81.80
48162;DHT22;33950;48.154;16.316;2022-08-19T08:06:35;26.50;81.70
48162;DHT22;33950;48.154;16.316;2022-08-19T08:09:23;26.50;80.40
48162;DHT22;33950;48.154;16.316;2022-08-19T08:11:52;26.50;80.80
48162;DHT22;33950;48.154;16.316;2022-08-19T08:14:21;26.50;80.80
48162;DHT22;33950;48.154;16.316;2022-08-19T08:16:48;26.60;80.80
48162;DHT22;33950;48.154;16.316;2022-08-19T08:19:15;26.80;80.80
48162;DHT22;33950;48.154;16.316;2022-08-19T08:21:42;26.90;79.70
48162;DHT22;33950;48.154;16.316;2022-08-19T08:24:09;27.00;79.70
48162;DHT22;33950;48.154;16.316;2022-08-19T08:26:34;27.00;79.90
48162;DHT22;33950;48.154;16.316;2022-08-19T08:29:00;27.10;79.40
48162;DHT22;33950;48.154;16.316;2022-08-19T08:31:29;27.20;78.40
48162;DHT22;33950;48.154;16.316;2022-08-19T08:33:55;27.20;78.40
48162;DHT22;33950;48.154;16.316;2022-08-19T08:36:21;27.30;78.20
48162;DHT22;33950;48.154;16.316;2022-08-19T08:38:48;27.30;77.80
48162;DHT22;33950;48.154;16.316;2022-08-19T08:41:20;27.40;78.10
48162;DHT22;33950;48.154;16.316;2022-08-19T08:43:49;27.50;77.50
48162;DHT22;33950;48.154;16.316;2022-08-19T08:46:21;27.50;77.10
48162;DHT22;33950;48.154;16.316;2022-08-19T08:48:51;27.60;77.70
48162;DHT22;33950;48.154;16.316;2022-08-19T08:51:23;27.70;77.80
48162;DHT22;33950;48.154;16.316;2022-08-19T08:53:53;27.80;77.10
48162;DHT22;33950;48.154;16.316;2022-08-19T08:56:20;27.90;77.50
48162;DHT22;33950;48.154;16.316;2022-08-19T08:58:51;27.90;78.80
48162;DHT22;33950;48.154;16.316;2022-08-19T09:01:19;28.00;79.30
48162;DHT22;33950;48.154;16.316;2022-08-19T09:03:46;28.10;79.10
48162;DHT22;33950;48.154;16.316;2022-08-19T09:06:16;28.20;77.80
48162;DHT22;33950;48.154;16.316;2022-08-19T09:08:51;28.30;78.30
48162;DHT22;33950;48.154;16.316;2022-08-19T09:11:36;28.40;77.00
48162;DHT22;33950;48.154;16.316;2022-08-19T09:14:09;28.40;77.30
48162;DHT22;33950;48.154;16.316;2022-08-19T09:16:36;28.40;79.10
48162;DHT22;33950;48.154;16.316;2022-08-19T09:19:07;28.40;77.50
48162;DHT22;33950;48.154;16.316;2022-08-19T09:21:33;28.40;77.50
48162;DHT22;33950;48.154;16.316;2022-08-19T09:24:00;28.40;77.30
48162;DHT22;33950;48.154;16.316;2022-08-19T09:26:27;28.30;78.30
48162;DHT22;33950;48.154;16.316;2022-08-19T09:28:53;28.30;76.40
48162;DHT22;33950;48.154;16.316;2022-08-19T09:31:21;28.30;77.20
48162;DHT22;33950;48.154;16.316;2022-08-19T09:33:48;28.30;77.00
48162;DHT22;33950;48.154;16.316;2022-08-19T09:36:17;28.40;77.60
48162;DHT22;33950;48.154;16.316;2022-08-19T09:38:44;28.50;77.80
48162;DHT22;33950;48.154;16.316;2022-08-19T09:41:12;28.50;77.70
48162;DHT22;33950;48.154;16.316;2022-08-19T09:43:41;28.50;77.20
48162;DHT22;33950;48.154;16.316;2022-08-19T09:46:08;28.60;77.00
48162;DHT22;33950;48.154;16.316;2022-08-19T09:48:35;28.60;75.20
48162;DHT22;33950;48.154;16.316;2022-08-19T09:51:05;28.50;74.40
48162;DHT22;33950;48.154;16.316;2022-08-19T09:53:32;28.40;73.70
48162;DHT22;33950;48.154;16.316;2022-08-19T09:55:58;28.50;76.10
48162;DHT22;33950;48.154;16.316;2022-08-19T09:58:23;28.60;76.00
48162;DHT22;33950;48.154;16.316;2022-08-19T10:00:54;28.70;75.90
48162;DHT22;33950;48.154;16.316;2022-08-19T10:03:20;28.70;74.50
48162;DHT22;33950;48.154;16.316;2022-08-19T10:05:46;28.80;76.80
48162;DHT22;33950;48.154;16.316;2022-08-19T10:08:17;29.00;78.30
48162;DHT22;33950;48.154;16.316;2022-08-19T10:10:43;29.00;75.50
48162;DHT22;33950;48.154;16.316;2022-08-19T10:13:09;29.00;74.10
48162;DHT22;33950;48.154;16.316;2022-08-19T10:15:35;29.10;77.10
48162;DHT22;33950;48.154;16.316;2022-08-19T10:18:07;29.20;75.40
48162;DHT22;33950;48.154;16.316;2022-08-19T10:20:33;29.30;77.00
48162;DHT22;33950;48.154;16.316;2022-08-19T10:22:59;29.30;77.90
48162;DHT22;33950;48.154;16.316;2022-08-19T10:25:25;29.30;74.70
48162;DHT22;33950;48.154;16.316;2022-08-19T10:27:52;29.20;75.20
48162;DHT22;33950;48.154;16.316;2022-08-19T10:30:18;29.10;72.70
48162;DHT22;33950;48.154;16.316;2022-08-19T10:32:44;29.00;75.50
48162;DHT22;33950;48.154;16.316;2022-08-19T10:35:13;28.90;76.70
48162;DHT22;33950;48.154;16.316;2022-08-19T10:37:39;29.00;77.80
48162;DHT22;33950;48.154;16.316;2022-08-19T10:40:07;28.80;79.40
48162;DHT22;33950;48.154;16.316;2022-08-19T10:42:34;28.80;79.50
48162;DHT22;33950;48.154;16.316;2022-08-19T10:45:00;28.70;79.20
48162;DHT22;33950;48.154;16.316;2022-08-19T10:47:26;28.60;79.60
48162;DHT22;33950;48.154;16.316;2022-08-19T10:49:52;28.50;79.20
48162;DHT22;33950;48.154;16.316;2022-08-19T10:52:39;28.50;80.10
48162;DHT22;33950;48.154;16.316;2022-08-19T10:55:07;28.40;82.80
48162;DHT22;33950;48.154;16.316;2022-08-19T10:57:51;28.30;82.40
48162;DHT22;33950;48.154;16.316;2022-08-19T11:00:18;28.30;82.90
48162;DHT22;33950;48.154;16.316;2022-08-19T11:02:44;28.30;82.70
48162;DHT22;33950;48.154;16.316;2022-08-19T11:05:11;28.30;81.80
48162;DHT22;33950;48.154;16.316;2022-08-19T11:07:39;28.30;81.00
48162;DHT22;33950;48.154;16.316;2022-08-19T11:10:06;28.20;80.80
48162;DHT22;33950;48.154;16.316;2022-08-19T11:12:33;28.30;81.10
48162;DHT22;33950;48.154;16.316;2022-08-19T11:15:01;28.30;80.80
48162;DHT22;33950;48.154;16.316;2022-08-19T11:17:27;28.30;80.60
48162;DHT22;33950;48.154;16.316;2022-08-19T11:19:53;28.30;81.50
48162;DHT22;33950;48.154;16.316;2022-08-19T11:22:19;28.20;80.50
48162;DHT22;33950;48.154;16.316;2022-08-19T11:24:46;28.20;81.40
48162;DHT22;33950;48.154;16.316;2022-08-19T11:27:12;28.20;80.40
48162;DHT22;33950;48.154;16.316;2022-08-19T11:29:38;28.20;81.30
48162;DHT22;33950;48.154;16.316;2022-08-19T11:32:07;28.30;80.70
48162;DHT22;33950;48.154;16.316;2022-08-19T11:34:35;28.50;80.50
48162;DHT22;33950;48.154;16.316;2022-08-19T11:37:01;28.90;79.30
48162;DHT22;33950;48.154;16.316;2022-08-19T11:39:30;29.00;78.80
48162;DHT22;33950;48.154;16.316;2022-08-19T11:41:58;29.10;76.70
48162;DHT22;33950;48.154;16.316;2022-08-19T11:44:24;29.00;76.00
48162;DHT22;33950;48.154;16.316;2022-08-19T11:46:51;29.00;76.50
48162;DHT22;33950;48.154;16.316;2022-08-19T11:49:19;28.90;75.10
48162;DHT22;33950;48.154;16.316;2022-08-19T11:51:47;28.90;74.50
48162;DHT22;33950;48.154;16.316;2022-08-19T11:54:15;29.30;75.00
48162;DHT22;33950;48.154;16.316;2022-08-19T11:56:42;30.00;72.60
48162;DHT22;33950;48.154;16.316;2022-08-19T11:59:09;30.70;72.60
48162;DHT22;33950;48.154;16.316;2022-08-19T12:01:36;31.20;70.10
48162;DHT22;33950;48.154;16.316;2022-08-19T12:04:02;31.20;69.90
48162;DHT22;33950;48.154;16.316;2022-08-19T12:06:32;31.00;69.90
48162;DHT22;33950;48.154;16.316;2022-08-19T12:09:02;30.80;69.80
48162;DHT22;33950;48.154;16.316;2022-08-19T12:11:28;30.70;70.10
48162;DHT22;33950;48.154;16.316;2022-08-19T12:13:54;30.50;69.70
48162;DHT22;33950;48.154;16.316;2022-08-19T12:16:23;30.40;70.80
48162;DHT22;33950;48.154;16.316;2022-08-19T12:18:50;30.30;70.60
48162;DHT22;33950;48.154;16.316;2022-08-19T12:21:20;30.40;70.90
48162;DHT22;33950;48.154;16.316;2022-08-19T12:23:48;30.50;69.70
48162;DHT22;33950;48.154;16.316;2022-08-19T12:26:15;30.80;70.50
48162;DHT22;33950;48.154;16.316;2022-08-19T12:28:41;31.00;70.30
48162;DHT22;33950;48.154;16.316;2022-08-19T12:31:07;31.10;70.40
48162;DHT22;33950;48.154;16.316;2022-08-19T12:33:34;31.10;69.40
48162;DHT22;33950;48.154;16.316;2022-08-19T12:36:01;30.80;69.60
48162;DHT22;33950;48.154;16.316;2022-08-19T12:38:28;30.60;70.30
48162;DHT22;33950;48.154;16.316;2022-08-19T12:40:54;30.40;70.80
48162;DHT22;33950;48.154;16.316;2022-08-19T12:43:20;30.20;70.50
48162;DHT22;33950;48.154;16.316;2022-08-19T12:45:46;30.00;71.40
48162;DHT22;33950;48.154;16.316;2022-08-19T12:48:12;29.80;71.60
48162;DHT22;33950;48.154;16.316;2022-08-19T12:50:40;29.70;71.40
48162;DHT22;33950;48.154;16.316;2022-08-19T12:53:06;29.60;73.70
48162;DHT22;33950;48.154;16.316;2022-08-19T12:55:32;29.40;76.10
48162;DHT22;33950;48.154;16.316;2022-08-19T12:57:57;29.20;77.30
48162;DHT22;33950;48.154;16.316;2022-08-19T13:00:23;29.10;77.40
48162;DHT22;33950;48.154;16.316;2022-08-19T13:02:51;29.00;78.20
48162;DHT22;33950;48.154;16.316;2022-08-19T13:05:19;29.00;78.40
48162;DHT22;33950;48.154;16.316;2022-08-19T13:07:47;28.90;77.10
48162;DHT22;33950;48.154;16.316;2022-08-19T13:10:17;28.90;77.80
48162;DHT22;33950;48.154;16.316;2022-08-19T13:12:44;28.90;78.10
48162;DHT22;33950;48.154;16.316;2022-08-19T13:15:11;28.80;77.30
48162;DHT22;33950;48.154;16.316;2022-08-19T13:17:38;28.90;78.40
48162;DHT22;33950;48.154;16.316;2022-08-19T13:20:05;28.90;78.00
48162;DHT22;33950;48.154;16.316;2022-08-19T13:22:33;28.90;77.70
48162;DHT22;33950;48.154;16.316;2022-08-19T13:25:00;28.80;77.80
48162;DHT22;33950;48.154;16.316;2022-08-19T13:27:26;28.80;78.30
48162;DHT22;33950;48.154;16.316;2022-08-19T13:29:51;28.70;77.50
48162;DHT22;33950;48.154;16.316;2022-08-19T13:32:35;28.70;77.50
48162;DHT22;33950;48.154;16.316;2022-08-19T13:35:20;28.60;77.90
48162;DHT22;33950;48.154;16.316;2022-08-19T13:37:46;28.60;78.10
48162;DHT22;33950;48.154;16.316;2022-08-19T13:40:15;28.50;78.70
48162;DHT22;33950;48.154;16.316;2022-08-19T13:42:44;28.50;78.40
48162;DHT22;33950;48.154;16.316;2022-08-19T13:45:12;28.40;78.40
48162;DHT22;33950;48.154;16.316;2022-08-19T13:47:39;28.40;78.80
48162;DHT22;33950;48.154;16.316;2022-08-19T13:50:08;28.50;79.20
48162;DHT22;33950;48.154;16.316;2022-08-19T13:52:34;28.50;78.00
48162;DHT22;33950;48.154;16.316;2022-08-19T13:55:00;28.60;78.20
48162;DHT22;33950;48.154;16.316;2022-08-19T13:57:27;28.60;77.60
48162;DHT22;33950;48.154;16.316;2022-08-19T13:59:53;28.60;77.60
48162;DHT22;33950;48.154;16.316;2022-08-19T14:02:19;28.60;77.40
48162;DHT22;33950;48.154;16.316;2022-08-19T14:04:44;28.60;77.40
48162;DHT22;33950;48.154;16.316;2022-08-19T14:07:10;28.60;77.40
48162;DHT22;33950;48.154;16.316;2022-08-19T14:09:36;28.60;77.40
48162;DHT22;33950;48.154;16.316;2022-08-19T14:12:02;28.70;77.30
48162;DHT22;33950;48.154;16.316;2022-08-19T14:14:29;28.80;77.60
48162;DHT22;33950;48.154;16.316;2022-08-19T14:16:55;29.10;77.40
48162;DHT22;33950;48.154;16.316;2022-08-19T14:19:21;29.20;76.00
48162;DHT22;33950;48.154;16.316;2022-08-19T14:21:47;29.50;75.90
48162;DHT22;33950;48.154;16.316;2022-08-19T14:24:13;29.70;73.80
48162;DHT22;33950;48.154;16.316;2022-08-19T14:26:39;29.70;73.90
48162;DHT22;33950;48.154;16.316;2022-08-19T14:29:05;30.00;74.60
48162;DHT22;33950;48.154;16.316;2022-08-19T14:31:32;30.40;73.70
48162;DHT22;33950;48.154;16.316;2022-08-19T14:33:57;30.60;73.50
48162;DHT22;33950;48.154;16.316;2022-08-19T14:36:23;30.90;72.20
48162;DHT22;33950;48.154;16.316;2022-08-19T14:38:49;30.90;70.70
48162;DHT22;33950;48.154;16.316;2022-08-19T14:41:17;30.80;70.40
48162;DHT22;33950;48.154;16.316;2022-08-19T14:43:44;30.60;70.80
48162;DHT22;33950;48.154;16.316;2022-08-19T14:46:12;30.50;70.80
48162;DHT22;33950;48.154;16.316;2022-08-19T14:48:40;30.50;69.20
48162;DHT22;33950;48.154;16.316;2022-08-19T14:51:06;30.40;69.50
48162;DHT22;33950;48.154;16.316;2022-08-19T14:53:32;30.30;69.60
48162;DHT22;33950;48.154;16.316;2022-08-19T14:55:59;30.20;69.90
48162;DHT22;33950;48.154;16.316;2022-08-19T14:58:25;30.20;69.10
48162;DHT22;33950;48.154;16.316;2022-08-19T15:00:51;30.10;67.80
48162;DHT22;33950;48.154;16.316;2022-08-19T15:03:16;30.20;67.30
48162;DHT22;33950;48.154;16.316;2022-08-19T15:05:44;30.10;67.40
48162;DHT22;33950;48.154;16.316;2022-08-19T15:08:09;30.10;67.80
48162;DHT22;33950;48.154;16.316;2022-08-19T15:10:35;30.10;67.50
48162;DHT22;33950;48.154;16.316;2022-08-19T15:13:03;29.90;67.40
48162;DHT22;33950;48.154;16.316;2022-08-19T15:15:29;30.00;68.20
48162;DHT22;33950;48.154;16.316;2022-08-19T15:17:54;30.20;68.50